CW9197 Juva FI current weather conditions

sailwx.info

Wind from 196 at 5 knots gusting 10

Air temperature 28.9° C
Dewpoint 16.1° C

Last reported at 2014-Jul-31 14:46 UTC.
Time now 2014-Jul-31 15:41 UTC

Location: N 61°53' E 027°53'.
View on Google Maps.

See reports from other nearby stations

  
Tides and Currents Weather Stations Pressure Air Temp Water Temp Dewpoint Dewpoint Depression Visibility Wind Speed Wind Dir Waves Ship Positions
date/time (UTC)wind fromknots sea level pressurealtimeterstation pressurevisibilityair tempwater tempwave heightnotes
2014-Jul-31 14:46 196 5 gusting 10 28.9
2014-Jul-31 14:36 202 5 gusting 16 28.9
2014-Jul-31 14:26 210 6 gusting 10 28.9
2014-Jul-31 14:16 206 6 gusting 13 29.4
2014-Jul-31 14:06 205 8 gusting 14 29.4
2014-Jul-31 13:56 202 6 gusting 12 29.4
2014-Jul-31 13:46 193 6 gusting 12 29.4
2014-Jul-31 13:36 176 7 gusting 13 29.4
2014-Jul-31 13:26 209 6 gusting 14 29.4
2014-Jul-31 13:16 198 9 gusting 13 29.4
2014-Jul-31 13:06 194 8 gusting 14 29.4
2014-Jul-31 12:56 193 5 gusting 14 30.0
2014-Jul-31 12:46 209 6 gusting 11 29.4
2014-Jul-31 12:36 203 7 gusting 13 30.0
2014-Jul-31 12:26 202 11 gusting 19 30.0
2014-Jul-31 12:16 207 6 gusting 12 30.0
2014-Jul-31 12:06 202 6 gusting 12 30.0
2014-Jul-31 11:56 193 10 gusting 17 30.0
2014-Jul-31 11:46 194 6 gusting 12 30.0
2014-Jul-31 11:36 201 6 gusting 12 30.0
2014-Jul-31 11:26 207 6 gusting 11 30.0
2014-Jul-31 11:16 192 5 gusting 10 30.0
2014-Jul-31 11:06 202 6 gusting 12 30.0
2014-Jul-31 10:56 203 6 gusting 12 30.0
2014-Jul-31 10:46 182 7 gusting 13 30.0
2014-Jul-31 10:36 187 6 gusting 12 30.0
2014-Jul-31 10:16 191 5 gusting 8 30.0
2014-Jul-31 10:06 197 4 gusting 11 30.0
2014-Jul-31 09:56 197 5 gusting 9 30.0
2014-Jul-31 09:45 188 5 gusting 15 29.4
2014-Jul-31 09:35 202 4 gusting 9 29.4
2014-Jul-31 09:25 178 5 gusting 9 28.9
2014-Jul-31 09:15 196 6 gusting 10 28.9
2014-Jul-31 09:05 187 5 gusting 8 28.9
2014-Jul-31 08:55 182 5 gusting 9 28.3
2014-Jul-31 08:45 188 4 gusting 7 28.3
2014-Jul-31 08:35 186 5 gusting 8 28.9
2014-Jul-31 08:25 202 4 gusting 6 28.3
2014-Jul-31 08:15 191 5 gusting 11 28.3
2014-Jul-31 08:05 195 4 gusting 11 28.3
2014-Jul-31 07:55 194 4 gusting 8 27.8
2014-Jul-31 07:45 200 3 gusting 6 27.2
2014-Jul-31 07:35 199 2 gusting 6 26.7
2014-Jul-31 07:25 198 3 gusting 7 26.7
2014-Jul-31 07:15 201 3 gusting 8 27.2
2014-Jul-31 07:05 196 3 gusting 7 27.2
2014-Jul-31 06:55 196 3 gusting 8 26.7
2014-Jul-31 06:45 189 3 gusting 6 26.7
2014-Jul-31 06:35 198 3 gusting 6 26.1
2014-Jul-31 06:25 196 3 gusting 6 26.1
2014-Jul-31 06:15 189 3 gusting 6 25.6
2014-Jul-31 06:05 188 3 gusting 6 25.6
2014-Jul-31 05:55 167 2 gusting 6 25.0
2014-Jul-31 05:45 171 2 gusting 6 24.4
2014-Jul-30 19:50 144 0 gusting 6 20.0
2014-Jul-30 19:40 104 1 gusting 7 20.0
2014-Jul-30 19:30 151 0 gusting 4 20.0
2014-Jul-30 19:20 168 0 gusting 5 20.6
2014-Jul-30 19:10 105 1 gusting 6 20.6
2014-Jul-30 19:00 107 2 gusting 5 20.6
2014-Jul-30 18:50 124 0 gusting 4 21.1
2014-Jul-30 18:40 110 1 gusting 4 21.1
2014-Jul-30 18:30 134 1 gusting 6 21.1
2014-Jul-30 18:20 133 0 gusting 4 21.7
2014-Jul-30 18:10 117 2 gusting 6 21.7
2014-Jul-30 18:00 108 2 gusting 4 21.7
2014-Jul-30 17:50 099 1 gusting 4 22.2
2014-Jul-30 17:40 090 3 gusting 6 22.2
2014-Jul-30 17:30 099 1 gusting 7 22.2
2014-Jul-30 17:20 074 1 gusting 6 22.2
2014-Jul-30 17:10 085 0 gusting 5 22.8
2014-Jul-30 17:00 096 1 gusting 7 22.8
2014-Jul-30 16:49 086 3 gusting 7 22.8
2014-Jul-30 16:39 097 3 gusting 6 23.3
2014-Jul-30 16:29 103 3 gusting 8 23.3
2014-Jul-30 16:19 089 3 gusting 6 23.3
2014-Jul-30 16:09 131 1 gusting 4 23.3
2014-Jul-30 15:59 081 3 gusting 9 23.9
2014-Jul-30 15:49 066 3 gusting 6 23.9
2014-Jul-30 15:39 102 3 gusting 9 23.9
2014-Jul-30 15:29 097 4 gusting 10 23.9
2014-Jul-30 15:19 087 2 gusting 7 23.9
2014-Jul-30 15:09 091 4 gusting 8 24.4
2014-Jul-30 14:59 075 2 gusting 6 24.4
2014-Jul-30 14:49 107 0 gusting 8 24.4
2014-Jul-30 14:39 076 6 gusting 10 24.4
2014-Jul-30 14:29 089 4 gusting 7 25.0
2014-Jul-30 14:19 091 4 gusting 11 24.4
2014-Jul-30 14:09 098 5 gusting 9 24.4
2014-Jul-30 13:59 090 2 gusting 7 24.4
2014-Jul-30 13:49 077 2 gusting 6 25.0
2014-Jul-30 13:39 195 1 gusting 5 25.6
2014-Jul-30 13:29 159 1 gusting 6 25.6
2014-Jul-30 13:19 094 2 gusting 7 25.6
2014-Jul-30 13:09 137 1 gusting 7 25.6
2014-Jul-30 12:59 183 4 gusting 6 25.6
2014-Jul-30 12:49 115 2 gusting 6 24.4
2014-Jul-30 12:39 080 2 gusting 5 25.6
2014-Jul-30 12:29 198 2 gusting 6 25.6
2014-Jul-30 12:19 199 2 gusting 9 25.0
2014-Jul-30 12:09 206 1 gusting 5 24.4
2014-Jul-30 11:59 059 3 gusting 9 24.4
2014-Jul-30 11:49 071 3 gusting 6 24.4
2014-Jul-30 11:39 143 2 gusting 6 25.0
2014-Jul-30 11:29 132 1 gusting 5 24.4
2014-Jul-30 11:19 189 0 gusting 4 25.0
2014-Jul-30 11:09 217 0 gusting 4 26.1
2014-Jul-30 10:59 198 2 gusting 5 26.1
2014-Jul-30 10:49 217 2 gusting 4 25.6
2014-Jul-30 10:39 189 2 gusting 5 26.1
2014-Jul-30 10:29 215 3 gusting 5 25.6
2014-Jul-30 10:19 180 25.0
2014-Jul-30 10:09 103 1 gusting 6 24.4
2014-Jul-30 09:59 110 1 gusting 5 24.4
2014-Jul-30 09:49 180 2 gusting 4 25.6
2014-Jul-30 09:39 153 0 gusting 3 25.0
2014-Jul-30 09:29 213 1 gusting 4 24.4
2014-Jul-30 09:19 120 23.9
2014-Jul-30 09:09 210 1 gusting 3 23.3
2014-Jul-30 08:59 081 2 gusting 4 23.9
2014-Jul-30 08:49 153 0 gusting 3 23.9
2014-Jul-30 08:39 095 2 gusting 5 23.9
2014-Jul-30 08:29 104 0 gusting 3 23.3
2014-Jul-30 08:19 190 0 gusting 3 22.8
2014-Jul-30 08:09 175 0 gusting 2 23.3
2014-Jul-30 07:59 225 22.8
2014-Jul-30 07:49 089 1 gusting 2 23.3
2014-Jul-30 07:38 222 0 gusting 2 22.8
2014-Jul-30 07:28 194 22.8
2014-Jul-30 07:18 209 22.8
2014-Jul-30 07:08 232 0 gusting 2 22.8
2014-Jul-30 06:58 219 1 gusting 3 22.8
2014-Jul-30 06:48 165 23.3
2014-Jul-30 06:38 217 1 gusting 3 23.3
2014-Jul-30 06:28 194 1 gusting 4 23.3
2014-Jul-30 06:18 187 2 gusting 4 22.2
2014-Jul-30 06:08 075 1 gusting 4 21.7
2014-Jul-30 05:58 085 2 gusting 5 21.1
2014-Jul-30 05:48 067 1 gusting 4 21.1
2014-Jul-30 05:38 066 2 gusting 5 21.1
2014-Jul-30 05:28 084 1 gusting 4 20.6
2014-Jul-30 05:18 045 4 gusting 4 20.6
2014-Jul-29 19:12 262 0 gusting 2 18.9
2014-Jul-29 19:02 337 18.9
2014-Jul-29 18:52 225 18.9
2014-Jul-29 18:42 221 0 gusting 2 18.9
2014-Jul-29 18:32 225 1 gusting 2 18.9
2014-Jul-29 18:22 226 1 gusting 3 18.9
2014-Jul-29 18:12 225 1 gusting 3 19.4
2014-Jul-29 18:02 215 1 gusting 3 20.0
2014-Jul-29 17:52 236 0 gusting 4 20.0
2014-Jul-29 17:42 217 1 gusting 3 20.0
2014-Jul-29 17:32 299 0 gusting 2 20.0
2014-Jul-29 17:22 289 20.0
2014-Jul-29 17:12 244 0 gusting 1 20.0
2014-Jul-29 17:02 315 20.0
2014-Jul-29 16:51 112 20.6
2014-Jul-29 16:41 327 20.0
2014-Jul-29 16:31 327 20.0
2014-Jul-29 16:21 167 0 gusting 2 20.0
2014-Jul-29 16:11 207 20.0
2014-Jul-29 16:01 209 0 gusting 1 20.0
2014-Jul-29 15:51 218 0 gusting 2 20.0
2014-Jul-29 15:41 225 1 gusting 4 20.0
2014-Jul-29 15:31 206 1 gusting 3 20.0
2014-Jul-29 15:21 225 0 gusting 3 20.0
2014-Jul-29 15:11 320 20.0
2014-Jul-29 15:01 234 0 gusting 2 20.0